PGT2341 LTBJ-LTFJ
Flight info
| Callsign | PGT2341 |
|---|---|
| Flight time | N/A |
| Altitude | 30000 |
| Route | BERGO UG80 DUGLA UY371 VUTZO |
| Aircraft | A21N/M-SDE3FGHIRWY/LB1 |
Departure
| Time | 2026-05-01 10:06 |
|---|---|
| Airport | Adnan Menderes International Airport (LTBJ) |
Arrival
| Time | N/A |
|---|---|
| Airport | Istanbul Sabiha Gökçen International Airport (LTFJ) |
| Time | Latitude | Longitude | Altitude | Speed | Heading |
|---|---|---|---|---|---|
| 2026-05-01 09:53 | 38.29149 | 27.15101 | 403 ft | 0 kts | 256° |
| 2026-05-01 09:57 | 38.29150 | 27.15103 | 403 ft | 1 kts | 257° |
| 2026-05-01 09:57 | 38.29154 | 27.15121 | 403 ft | 2 kts | 253° |
| 2026-05-01 09:57 | 38.29158 | 27.15139 | 403 ft | 2 kts | 257° |
| 2026-05-01 09:57 | 38.29161 | 27.15158 | 403 ft | 1 kts | 255° |
| 2026-05-01 09:58 | 38.29167 | 27.15174 | 403 ft | 2 kts | 216° |
| 2026-05-01 09:58 | 38.29181 | 27.15180 | 403 ft | 2 kts | 173° |
| 2026-05-01 09:58 | 38.29192 | 27.15176 | 402 ft | 0 kts | 161° |
| 2026-05-01 09:58 | 38.29194 | 27.15175 | 402 ft | 0 kts | 163° |
| 2026-05-01 10:01 | 38.29174 | 27.15182 | 403 ft | 6 kts | 163° |
| 2026-05-01 10:01 | 38.29126 | 27.15201 | 403 ft | 7 kts | 168° |
| 2026-05-01 10:01 | 38.29056 | 27.15218 | 403 ft | 12 kts | 166° |
| 2026-05-01 10:01 | 38.29005 | 27.15291 | 403 ft | 9 kts | 127° |
| 2026-05-01 10:02 | 38.28937 | 27.15320 | 403 ft | 10 kts | 165° |
| 2026-05-01 10:02 | 38.28861 | 27.15344 | 403 ft | 11 kts | 167° |
| 2026-05-01 10:02 | 38.28776 | 27.15368 | 402 ft | 13 kts | 167° |
| 2026-05-01 10:02 | 38.28682 | 27.15394 | 402 ft | 14 kts | 167° |
| 2026-05-01 10:03 | 38.28582 | 27.15422 | 401 ft | 15 kts | 167° |
| 2026-05-01 10:03 | 38.28476 | 27.15454 | 399 ft | 16 kts | 166° |
| 2026-05-01 10:03 | 38.28359 | 27.15491 | 397 ft | 18 kts | 166° |
| 2026-05-01 10:03 | 38.28232 | 27.15532 | 393 ft | 20 kts | 165° |
| 2026-05-01 10:04 | 38.28081 | 27.15583 | 387 ft | 23 kts | 164° |
| 2026-05-01 10:04 | 38.27922 | 27.15631 | 383 ft | 23 kts | 165° |
| 2026-05-01 10:04 | 38.27782 | 27.15678 | 378 ft | 12 kts | 149° |
| 2026-05-01 10:04 | 38.27768 | 27.15788 | 377 ft | 14 kts | 78° |
| 2026-05-01 10:05 | 38.27790 | 27.15913 | 376 ft | 14 kts | 77° |
| 2026-05-01 10:05 | 38.27815 | 27.16041 | 377 ft | 14 kts | 76° |
| 2026-05-01 10:05 | 38.27868 | 27.16104 | 380 ft | 10 kts | 353° |
| 2026-05-01 10:05 | 38.27936 | 27.16085 | 382 ft | 12 kts | 347° |
| 2026-05-01 10:06 | 38.28266 | 27.15988 | 393 ft | 87 kts | 348° |
| 2026-05-01 10:06 | 38.29077 | 27.15738 | 405 ft | 152 kts | 345° |
| 2026-05-01 10:06 | 38.30198 | 27.15369 | 745 ft | 177 kts | 348° |
| 2026-05-01 10:06 | 38.31462 | 27.14972 | 1290 ft | 196 kts | 346° |
| 2026-05-01 10:07 | 38.32823 | 27.14549 | 1967 ft | 211 kts | 347° |
| 2026-05-01 10:07 | 38.34322 | 27.14118 | 2529 ft | 230 kts | 348° |
| 2026-05-01 10:07 | 38.35894 | 27.13667 | 3289 ft | 239 kts | 349° |
| 2026-05-01 10:07 | 38.37509 | 27.13196 | 4173 ft | 242 kts | 348° |
| 2026-05-01 10:08 | 38.40808 | 27.12228 | 5914 ft | 248 kts | 346° |
| 2026-05-01 10:08 | 38.42520 | 27.11713 | 6527 ft | 262 kts | 345° |
| 2026-05-01 10:08 | 38.44246 | 27.11189 | 7263 ft | 269 kts | 345° |
| 2026-05-01 10:09 | 38.46102 | 27.10626 | 8192 ft | 270 kts | 345° |
| 2026-05-01 10:09 | 38.47924 | 27.10073 | 9062 ft | 273 kts | 345° |
| 2026-05-01 10:09 | 38.48526 | 27.09891 | 9332 ft | 274 kts | 345° |
| 2026-05-01 10:09 | 38.51644 | 27.08946 | 10637 ft | 283 kts | 344° |
| 2026-05-01 10:10 | 38.52956 | 27.08545 | 10955 ft | 294 kts | 344° |